sensor_id;sensor_type;location;lat;lon;timestamp;temperature;humidity
62464;SHT31;48512;48.552;9.380;2023-12-20T00:01:04;6.98;82.20
62464;SHT31;48512;48.552;9.380;2023-12-20T00:03:30;6.99;82.15
62464;SHT31;48512;48.552;9.380;2023-12-20T00:05:56;6.99;82.30
62464;SHT31;48512;48.552;9.380;2023-12-20T00:08:22;7.00;82.11
62464;SHT31;48512;48.552;9.380;2023-12-20T00:10:49;7.03;82.00
62464;SHT31;48512;48.552;9.380;2023-12-20T00:13:15;7.00;82.31
62464;SHT31;48512;48.552;9.380;2023-12-20T00:15:44;6.96;82.69
62464;SHT31;48512;48.552;9.380;2023-12-20T00:18:11;6.91;82.59
62464;SHT31;48512;48.552;9.380;2023-12-20T00:20:38;6.96;82.50
62464;SHT31;48512;48.552;9.380;2023-12-20T00:23:04;6.98;82.51
62464;SHT31;48512;48.552;9.380;2023-12-20T00:25:30;6.95;82.48
62464;SHT31;48512;48.552;9.380;2023-12-20T00:27:56;6.96;82.47
62464;SHT31;48512;48.552;9.380;2023-12-20T00:30:25;6.96;82.63
62464;SHT31;48512;48.552;9.380;2023-12-20T00:32:52;6.96;82.46
62464;SHT31;48512;48.552;9.380;2023-12-20T00:35:19;6.99;82.26
62464;SHT31;48512;48.552;9.380;2023-12-20T00:37:45;6.99;82.35
62464;SHT31;48512;48.552;9.380;2023-12-20T00:40:12;7.02;82.43
62464;SHT31;48512;48.552;9.380;2023-12-20T00:42:39;7.05;82.19
62464;SHT31;48512;48.552;9.380;2023-12-20T00:45:05;7.08;82.20
62464;SHT31;48512;48.552;9.380;2023-12-20T00:47:32;7.12;82.05
62464;SHT31;48512;48.552;9.380;2023-12-20T00:49:58;7.09;82.38
62464;SHT31;48512;48.552;9.380;2023-12-20T00:52:24;7.03;82.57
62464;SHT31;48512;48.552;9.380;2023-12-20T00:54:51;7.10;82.22
62464;SHT31;48512;48.552;9.380;2023-12-20T00:57:18;7.09;82.36
62464;SHT31;48512;48.552;9.380;2023-12-20T00:59:44;7.09;82.29
62464;SHT31;48512;48.552;9.380;2023-12-20T01:02:16;7.09;82.28
62464;SHT31;48512;48.552;9.380;2023-12-20T01:04:43;7.12;82.12
62464;SHT31;48512;48.552;9.380;2023-12-20T01:07:09;7.12;82.26
62464;SHT31;48512;48.552;9.380;2023-12-20T01:09:36;7.13;82.02
62464;SHT31;48512;48.552;9.380;2023-12-20T01:12:02;7.12;82.15
62464;SHT31;48512;48.552;9.380;2023-12-20T01:14:32;7.09;82.07
62464;SHT31;48512;48.552;9.380;2023-12-20T01:16:59;7.10;81.99
62464;SHT31;48512;48.552;9.380;2023-12-20T01:19:25;7.24;80.71
62464;SHT31;48512;48.552;9.380;2023-12-20T01:21:57;7.19;81.41
62464;SHT31;48512;48.552;9.380;2023-12-20T01:24:23;7.15;81.49
62464;SHT31;48512;48.552;9.380;2023-12-20T01:26:49;7.15;81.70
62464;SHT31;48512;48.552;9.380;2023-12-20T01:29:15;7.13;81.38
62464;SHT31;48512;48.552;9.380;2023-12-20T01:31:42;7.12;80.78
62464;SHT31;48512;48.552;9.380;2023-12-20T01:34:08;7.15;81.03
62464;SHT31;48512;48.552;9.380;2023-12-20T01:36:34;7.10;81.54
62464;SHT31;48512;48.552;9.380;2023-12-20T01:39:00;7.03;82.70
62464;SHT31;48512;48.552;9.380;2023-12-20T01:41:26;7.00;83.19
62464;SHT31;48512;48.552;9.380;2023-12-20T01:44:00;6.89;83.65
62464;SHT31;48512;48.552;9.380;2023-12-20T01:46:28;6.85;83.03
62464;SHT31;48512;48.552;9.380;2023-12-20T01:48:54;6.77;83.82
62464;SHT31;48512;48.552;9.380;2023-12-20T01:51:21;6.71;84.84
62464;SHT31;48512;48.552;9.380;2023-12-20T01:53:48;6.70;85.72
62464;SHT31;48512;48.552;9.380;2023-12-20T01:56:19;6.61;86.52
62464;SHT31;48512;48.552;9.380;2023-12-20T01:58:46;6.54;87.64
62464;SHT31;48512;48.552;9.380;2023-12-20T02:01:13;6.51;86.30
62464;SHT31;48512;48.552;9.380;2023-12-20T02:03:42;6.45;86.81
62464;SHT31;48512;48.552;9.380;2023-12-20T02:06:09;6.38;87.19
62464;SHT31;48512;48.552;9.380;2023-12-20T02:08:35;6.37;87.32
62464;SHT31;48512;48.552;9.380;2023-12-20T02:11:02;6.33;87.70
62464;SHT31;48512;48.552;9.380;2023-12-20T02:13:30;6.27;88.39
62464;SHT31;48512;48.552;9.380;2023-12-20T02:15:57;6.20;88.41
62464;SHT31;48512;48.552;9.380;2023-12-20T02:18:24;6.17;89.16
62464;SHT31;48512;48.552;9.380;2023-12-20T02:20:50;6.16;88.93
62464;SHT31;48512;48.552;9.380;2023-12-20T02:23:17;6.10;89.95
62464;SHT31;48512;48.552;9.380;2023-12-20T02:25:43;6.06;90.35
62464;SHT31;48512;48.552;9.380;2023-12-20T02:28:09;6.03;90.13
62464;SHT31;48512;48.552;9.380;2023-12-20T02:30:35;6.02;90.61
62464;SHT31;48512;48.552;9.380;2023-12-20T02:33:03;6.02;90.99
62464;SHT31;48512;48.552;9.380;2023-12-20T02:35:37;5.98;91.57
62464;SHT31;48512;48.552;9.380;2023-12-20T02:38:03;5.92;91.45
62464;SHT31;48512;48.552;9.380;2023-12-20T02:40:29;5.95;91.25
62464;SHT31;48512;48.552;9.380;2023-12-20T02:42:55;5.93;91.78
62464;SHT31;48512;48.552;9.380;2023-12-20T02:45:21;5.93;91.28
62464;SHT31;48512;48.552;9.380;2023-12-20T02:47:47;5.91;92.07
62464;SHT31;48512;48.552;9.380;2023-12-20T02:50:14;5.88;91.73
62464;SHT31;48512;48.552;9.380;2023-12-20T02:52:40;5.89;91.57
62464;SHT31;48512;48.552;9.380;2023-12-20T02:55:06;5.88;92.30
62464;SHT31;48512;48.552;9.380;2023-12-20T02:57:32;5.92;92.14
62464;SHT31;48512;48.552;9.380;2023-12-20T03:00:00;5.91;92.08
62464;SHT31;48512;48.552;9.380;2023-12-20T03:02:26;5.92;92.32
62464;SHT31;48512;48.552;9.380;2023-12-20T03:04:59;5.92;92.29
62464;SHT31;48512;48.552;9.380;2023-12-20T03:07:26;5.89;91.87
62464;SHT31;48512;48.552;9.380;2023-12-20T03:09:52;5.93;91.95
62464;SHT31;48512;48.552;9.380;2023-12-20T03:12:19;5.98;92.03
62464;SHT31;48512;48.552;9.380;2023-12-20T03:14:46;5.93;92.82
62464;SHT31;48512;48.552;9.380;2023-12-20T03:17:12;5.91;92.57
62464;SHT31;48512;48.552;9.380;2023-12-20T03:19:38;5.89;92.23
62464;SHT31;48512;48.552;9.380;2023-12-20T03:22:05;5.91;92.66
62464;SHT31;48512;48.552;9.380;2023-12-20T03:24:31;5.89;92.88
62464;SHT31;48512;48.552;9.380;2023-12-20T03:26:57;5.88;92.68
62464;SHT31;48512;48.552;9.380;2023-12-20T03:29:23;5.85;92.57
62464;SHT31;48512;48.552;9.380;2023-12-20T03:31:49;5.89;92.47
62464;SHT31;48512;48.552;9.380;2023-12-20T03:34:16;5.89;92.32
62464;SHT31;48512;48.552;9.380;2023-12-20T03:36:42;5.89;92.34
62464;SHT31;48512;48.552;9.380;2023-12-20T03:39:12;5.91;92.25
62464;SHT31;48512;48.552;9.380;2023-12-20T03:41:38;5.89;92.07
62464;SHT31;48512;48.552;9.380;2023-12-20T03:44:04;5.93;92.39
62464;SHT31;48512;48.552;9.380;2023-12-20T03:46:31;5.89;91.74
62464;SHT31;48512;48.552;9.380;2023-12-20T03:49:03;5.84;92.28
62464;SHT31;48512;48.552;9.380;2023-12-20T03:51:31;5.82;92.12
62464;SHT31;48512;48.552;9.380;2023-12-20T03:53:57;5.76;92.17
62464;SHT31;48512;48.552;9.380;2023-12-20T03:56:25;5.78;92.28
62464;SHT31;48512;48.552;9.380;2023-12-20T03:58:51;5.79;92.47
62464;SHT31;48512;48.552;9.380;2023-12-20T04:01:17;5.78;92.16
62464;SHT31;48512;48.552;9.380;2023-12-20T04:03:43;5.79;91.16
62464;SHT31;48512;48.552;9.380;2023-12-20T04:06:18;5.75;91.34
62464;SHT31;48512;48.552;9.380;2023-12-20T04:08:45;5.76;92.01
62464;SHT31;48512;48.552;9.380;2023-12-20T04:11:13;5.66;91.17
62464;SHT31;48512;48.552;9.380;2023-12-20T04:13:39;5.65;91.30
62464;SHT31;48512;48.552;9.380;2023-12-20T04:16:05;5.66;91.23
62464;SHT31;48512;48.552;9.380;2023-12-20T04:18:33;5.64;91.72
62464;SHT31;48512;48.552;9.380;2023-12-20T04:20:59;5.62;91.74
62464;SHT31;48512;48.552;9.380;2023-12-20T04:23:26;5.61;90.99
62464;SHT31;48512;48.552;9.380;2023-12-20T04:25:54;5.58;90.68
62464;SHT31;48512;48.552;9.380;2023-12-20T04:28:21;5.61;90.86
62464;SHT31;48512;48.552;9.380;2023-12-20T04:30:48;5.57;91.04
62464;SHT31;48512;48.552;9.380;2023-12-20T04:33:14;5.52;91.46
62464;SHT31;48512;48.552;9.380;2023-12-20T04:35:40;5.50;91.71
62464;SHT31;48512;48.552;9.380;2023-12-20T04:38:09;5.54;91.48
62464;SHT31;48512;48.552;9.380;2023-12-20T04:41:00;5.57;91.69
62464;SHT31;48512;48.552;9.380;2023-12-20T04:43:26;5.51;91.68
62464;SHT31;48512;48.552;9.380;2023-12-20T04:45:58;5.47;91.44
62464;SHT31;48512;48.552;9.380;2023-12-20T04:48:27;5.47;91.72
62464;SHT31;48512;48.552;9.380;2023-12-20T04:50:54;5.44;91.78
62464;SHT31;48512;48.552;9.380;2023-12-20T04:53:21;5.41;91.99
62464;SHT31;48512;48.552;9.380;2023-12-20T04:55:48;5.40;91.96
62464;SHT31;48512;48.552;9.380;2023-12-20T04:58:14;5.36;92.37
62464;SHT31;48512;48.552;9.380;2023-12-20T05:00:40;5.40;91.84
62464;SHT31;48512;48.552;9.380;2023-12-20T05:03:07;5.41;91.51
62464;SHT31;48512;48.552;9.380;2023-12-20T05:05:33;5.38;91.66
62464;SHT31;48512;48.552;9.380;2023-12-20T05:07:59;5.38;90.90
62464;SHT31;48512;48.552;9.380;2023-12-20T05:10:26;5.41;91.10
62464;SHT31;48512;48.552;9.380;2023-12-20T05:12:54;5.41;91.32
62464;SHT31;48512;48.552;9.380;2023-12-20T05:15:21;5.38;91.41
62464;SHT31;48512;48.552;9.380;2023-12-20T05:17:47;5.33;91.77
62464;SHT31;48512;48.552;9.380;2023-12-20T05:20:13;5.36;91.66
62464;SHT31;48512;48.552;9.380;2023-12-20T05:22:41;5.34;91.96
62464;SHT31;48512;48.552;9.380;2023-12-20T05:25:09;5.37;91.70
62464;SHT31;48512;48.552;9.380;2023-12-20T05:27:35;5.36;91.21
62464;SHT31;48512;48.552;9.380;2023-12-20T05:30:03;5.36;91.67
62464;SHT31;48512;48.552;9.380;2023-12-20T05:32:30;5.40;91.32
62464;SHT31;48512;48.552;9.380;2023-12-20T05:34:57;5.36;91.22
62464;SHT31;48512;48.552;9.380;2023-12-20T05:37:24;5.33;91.78
62464;SHT31;48512;48.552;9.380;2023-12-20T05:39:51;5.30;92.16
62464;SHT31;48512;48.552;9.380;2023-12-20T05:42:18;5.30;92.07
62464;SHT31;48512;48.552;9.380;2023-12-20T05:44:44;5.28;92.40
62464;SHT31;48512;48.552;9.380;2023-12-20T05:47:10;5.30;91.94
62464;SHT31;48512;48.552;9.380;2023-12-20T05:49:36;5.31;92.10
62464;SHT31;48512;48.552;9.380;2023-12-20T05:52:05;5.30;92.04
62464;SHT31;48512;48.552;9.380;2023-12-20T05:54:32;5.27;92.47
62464;SHT31;48512;48.552;9.380;2023-12-20T05:57:01;5.24;92.76
62464;SHT31;48512;48.552;9.380;2023-12-20T05:59:27;5.23;92.88
62464;SHT31;48512;48.552;9.380;2023-12-20T06:01:53;5.26;92.97
62464;SHT31;48512;48.552;9.380;2023-12-20T06:04:19;5.17;93.09
62464;SHT31;48512;48.552;9.380;2023-12-20T06:06:52;5.23;93.29
62464;SHT31;48512;48.552;9.380;2023-12-20T06:09:18;5.22;92.98
62464;SHT31;48512;48.552;9.380;2023-12-20T06:11:44;5.23;92.93
62464;SHT31;48512;48.552;9.380;2023-12-20T06:14:12;5.23;92.44
62464;SHT31;48512;48.552;9.380;2023-12-20T06:16:38;5.22;92.79
62464;SHT31;48512;48.552;9.380;2023-12-20T06:19:30;5.23;92.57
62464;SHT31;48512;48.552;9.380;2023-12-20T06:22:05;5.23;92.59
62464;SHT31;48512;48.552;9.380;2023-12-20T06:24:31;5.26;92.60
62464;SHT31;48512;48.552;9.380;2023-12-20T06:26:59;5.23;92.59
62464;SHT31;48512;48.552;9.380;2023-12-20T06:29:26;5.24;92.88
62464;SHT31;48512;48.552;9.380;2023-12-20T06:31:58;5.20;92.93
62464;SHT31;48512;48.552;9.380;2023-12-20T06:34:24;5.20;92.83
62464;SHT31;48512;48.552;9.380;2023-12-20T06:36:51;5.16;92.77
62464;SHT31;48512;48.552;9.380;2023-12-20T06:39:17;5.16;93.20
62464;SHT31;48512;48.552;9.380;2023-12-20T06:41:43;5.10;93.21
62464;SHT31;48512;48.552;9.380;2023-12-20T06:44:13;5.09;93.81
62464;SHT31;48512;48.552;9.380;2023-12-20T06:46:42;5.12;93.96
62464;SHT31;48512;48.552;9.380;2023-12-20T06:49:09;5.15;93.62
62464;SHT31;48512;48.552;9.380;2023-12-20T06:51:35;5.20;93.63
62464;SHT31;48512;48.552;9.380;2023-12-20T06:54:03;5.19;93.73
62464;SHT31;48512;48.552;9.380;2023-12-20T06:56:31;5.16;93.85
62464;SHT31;48512;48.552;9.380;2023-12-20T06:58:59;5.16;93.75
62464;SHT31;48512;48.552;9.380;2023-12-20T07:01:25;5.16;93.64
62464;SHT31;48512;48.552;9.380;2023-12-20T07:03:51;5.17;93.77
62464;SHT31;48512;48.552;9.380;2023-12-20T07:06:17;5.19;93.34
62464;SHT31;48512;48.552;9.380;2023-12-20T07:08:44;5.44;94.66
62464;SHT31;48512;48.552;9.380;2023-12-20T07:11:10;6.89;92.32
62464;SHT31;48512;48.552;9.380;2023-12-20T07:13:37;6.82;88.04
62464;SHT31;48512;48.552;9.380;2023-12-20T07:16:03;6.38;88.57
62464;SHT31;48512;48.552;9.380;2023-12-20T07:18:29;6.19;89.53
62464;SHT31;48512;48.552;9.380;2023-12-20T07:20:55;6.02;90.20
62464;SHT31;48512;48.552;9.380;2023-12-20T07:23:22;5.76;90.80
62464;SHT31;48512;48.552;9.380;2023-12-20T07:25:48;5.69;91.31
62464;SHT31;48512;48.552;9.380;2023-12-20T07:28:14;5.55;91.26
62464;SHT31;48512;48.552;9.380;2023-12-20T07:30:40;5.58;91.88
62464;SHT31;48512;48.552;9.380;2023-12-20T07:33:06;5.48;92.22
62464;SHT31;48512;48.552;9.380;2023-12-20T07:35:34;5.50;92.08
62464;SHT31;48512;48.552;9.380;2023-12-20T07:38:01;5.44;91.65
62464;SHT31;48512;48.552;9.380;2023-12-20T07:40:28;5.47;91.89
62464;SHT31;48512;48.552;9.380;2023-12-20T07:42:54;5.50;92.29
62464;SHT31;48512;48.552;9.380;2023-12-20T07:45:21;5.52;92.05
62464;SHT31;48512;48.552;9.380;2023-12-20T07:47:48;6.16;92.18
62464;SHT31;48512;48.552;9.380;2023-12-20T07:50:16;5.92;90.43
62464;SHT31;48512;48.552;9.380;2023-12-20T07:52:42;5.82;91.18
62464;SHT31;48512;48.552;9.380;2023-12-20T07:55:09;5.85;90.96
62464;SHT31;48512;48.552;9.380;2023-12-20T07:57:35;5.76;91.16
62464;SHT31;48512;48.552;9.380;2023-12-20T08:00:02;5.71;91.75
62464;SHT31;48512;48.552;9.380;2023-12-20T08:02:34;5.72;92.05
62464;SHT31;48512;48.552;9.380;2023-12-20T08:05:01;5.68;92.30
62464;SHT31;48512;48.552;9.380;2023-12-20T08:07:27;5.68;92.27
62464;SHT31;48512;48.552;9.380;2023-12-20T08:09:55;5.68;92.51
62464;SHT31;48512;48.552;9.380;2023-12-20T08:12:22;5.65;91.20
62464;SHT31;48512;48.552;9.380;2023-12-20T08:14:49;5.65;92.23
62464;SHT31;48512;48.552;9.380;2023-12-20T08:17:15;5.66;92.10
62464;SHT31;48512;48.552;9.380;2023-12-20T08:19:42;5.66;91.96
62464;SHT31;48512;48.552;9.380;2023-12-20T08:22:08;5.66;92.53
62464;SHT31;48512;48.552;9.380;2023-12-20T08:24:34;5.72;92.58
62464;SHT31;48512;48.552;9.380;2023-12-20T08:27:00;5.69;92.30
62464;SHT31;48512;48.552;9.380;2023-12-20T08:29:26;5.71;92.01
62464;SHT31;48512;48.552;9.380;2023-12-20T08:31:53;5.72;92.05
62464;SHT31;48512;48.552;9.380;2023-12-20T08:34:20;5.66;91.86
62464;SHT31;48512;48.552;9.380;2023-12-20T08:36:46;5.69;92.12
62464;SHT31;48512;48.552;9.380;2023-12-20T08:39:12;5.65;92.26
62464;SHT31;48512;48.552;9.380;2023-12-20T08:41:38;5.68;92.21
62464;SHT31;48512;48.552;9.380;2023-12-20T08:44:04;5.66;92.22
62464;SHT31;48512;48.552;9.380;2023-12-20T08:46:30;5.72;92.37
62464;SHT31;48512;48.552;9.380;2023-12-20T08:48:57;5.68;92.43
62464;SHT31;48512;48.552;9.380;2023-12-20T08:51:23;5.74;92.53
62464;SHT31;48512;48.552;9.380;2023-12-20T08:53:52;5.72;92.88
62464;SHT31;48512;48.552;9.380;2023-12-20T08:56:18;5.71;92.77
62464;SHT31;48512;48.552;9.380;2023-12-20T08:58:45;5.72;92.65
62464;SHT31;48512;48.552;9.380;2023-12-20T09:01:11;5.72;93.01
62464;SHT31;48512;48.552;9.380;2023-12-20T09:03:38;5.71;92.98
62464;SHT31;48512;48.552;9.380;2023-12-20T09:06:05;5.72;92.83
62464;SHT31;48512;48.552;9.380;2023-12-20T09:08:31;5.76;93.06
62464;SHT31;48512;48.552;9.380;2023-12-20T09:10:57;5.82;93.30
62464;SHT31;48512;48.552;9.380;2023-12-20T09:13:24;5.84;93.21
62464;SHT31;48512;48.552;9.380;2023-12-20T09:15:57;5.85;93.17
62464;SHT31;48512;48.552;9.380;2023-12-20T09:18:23;5.91;93.20
62464;SHT31;48512;48.552;9.380;2023-12-20T09:20:49;5.91;93.35
62464;SHT31;48512;48.552;9.380;2023-12-20T09:23:15;5.89;93.81
62464;SHT31;48512;48.552;9.380;2023-12-20T09:25:42;5.91;94.11
62464;SHT31;48512;48.552;9.380;2023-12-20T09:28:09;5.93;94.45
62464;SHT31;48512;48.552;9.380;2023-12-20T09:30:35;5.82;92.69
62464;SHT31;48512;48.552;9.380;2023-12-20T09:33:06;5.76;91.99
62464;SHT31;48512;48.552;9.380;2023-12-20T09:35:33;5.75;92.32
62464;SHT31;48512;48.552;9.380;2023-12-20T09:37:59;5.72;91.09
62464;SHT31;48512;48.552;9.380;2023-12-20T09:40:26;5.69;90.13
62464;SHT31;48512;48.552;9.380;2023-12-20T09:43:21;5.69;90.76
62464;SHT31;48512;48.552;9.380;2023-12-20T09:45:52;5.68;90.68
62464;SHT31;48512;48.552;9.380;2023-12-20T09:48:19;5.61;90.68
62464;SHT31;48512;48.552;9.380;2023-12-20T09:50:46;5.59;90.22
62464;SHT31;48512;48.552;9.380;2023-12-20T09:53:15;5.58;89.19
62464;SHT31;48512;48.552;9.380;2023-12-20T09:55:42;5.58;88.70
62464;SHT31;48512;48.552;9.380;2023-12-20T09:58:09;5.58;88.19
62464;SHT31;48512;48.552;9.380;2023-12-20T10:00:35;5.55;87.11
62464;SHT31;48512;48.552;9.380;2023-12-20T10:03:01;5.57;87.08
62464;SHT31;48512;48.552;9.380;2023-12-20T10:05:32;5.58;86.68
62464;SHT31;48512;48.552;9.380;2023-12-20T10:07:59;5.59;86.33
62464;SHT31;48512;48.552;9.380;2023-12-20T10:10:27;5.57;87.07
62464;SHT31;48512;48.552;9.380;2023-12-20T10:13:06;5.54;85.98
62464;SHT31;48512;48.552;9.380;2023-12-20T10:15:34;5.47;85.57
62464;SHT31;48512;48.552;9.380;2023-12-20T10:18:04;5.43;86.87
62464;SHT31;48512;48.552;9.380;2023-12-20T10:20:33;5.43;85.35
62464;SHT31;48512;48.552;9.380;2023-12-20T10:23:00;5.37;83.39
62464;SHT31;48512;48.552;9.380;2023-12-20T10:25:26;5.28;83.34
62464;SHT31;48512;48.552;9.380;2023-12-20T10:28:13;5.33;84.45
62464;SHT31;48512;48.552;9.380;2023-12-20T10:30:41;5.34;85.02
62464;SHT31;48512;48.552;9.380;2023-12-20T10:33:09;5.36;84.66
62464;SHT31;48512;48.552;9.380;2023-12-20T10:35:37;5.37;83.64
62464;SHT31;48512;48.552;9.380;2023-12-20T10:38:04;5.51;85.79
62464;SHT31;48512;48.552;9.380;2023-12-20T10:40:35;5.54;85.07
62464;SHT31;48512;48.552;9.380;2023-12-20T10:43:05;5.50;85.10
62464;SHT31;48512;48.552;9.380;2023-12-20T10:45:32;5.55;85.67
62464;SHT31;48512;48.552;9.380;2023-12-20T10:47:58;5.55;84.05
62464;SHT31;48512;48.552;9.380;2023-12-20T10:50:28;5.50;83.38
62464;SHT31;48512;48.552;9.380;2023-12-20T10:52:55;5.52;84.26
62464;SHT31;48512;48.552;9.380;2023-12-20T10:55:23;5.59;84.13
62464;SHT31;48512;48.552;9.380;2023-12-20T10:57:54;5.59;83.23
62464;SHT31;48512;48.552;9.380;2023-12-20T11:00:23;5.59;83.09
62464;SHT31;48512;48.552;9.380;2023-12-20T11:02:49;5.64;83.32
62464;SHT31;48512;48.552;9.380;2023-12-20T11:05:30;5.71;83.46
62464;SHT31;48512;48.552;9.380;2023-12-20T11:13:21;5.76;82.49
62464;SHT31;48512;48.552;9.380;2023-12-20T11:15:48;5.75;81.42
62464;SHT31;48512;48.552;9.380;2023-12-20T11:18:15;5.85;81.97
62464;SHT31;48512;48.552;9.380;2023-12-20T11:20:41;5.84;82.38
62464;SHT31;48512;48.552;9.380;2023-12-20T11:23:09;5.86;82.07
62464;SHT31;48512;48.552;9.380;2023-12-20T11:25:51;5.84;81.95
62464;SHT31;48512;48.552;9.380;2023-12-20T11:28:23;5.85;82.20
62464;SHT31;48512;48.552;9.380;2023-12-20T11:30:56;5.85;82.26
62464;SHT31;48512;48.552;9.380;2023-12-20T11:33:23;5.86;82.47
62464;SHT31;48512;48.552;9.380;2023-12-20T11:35:50;5.92;82.09
62464;SHT31;48512;48.552;9.380;2023-12-20T11:38:17;5.95;83.32
62464;SHT31;48512;48.552;9.380;2023-12-20T11:40:48;5.93;81.58
62464;SHT31;48512;48.552;9.380;2023-12-20T11:43:37;5.96;81.65
62464;SHT31;48512;48.552;9.380;2023-12-20T11:48:32;5.93;80.96
62464;SHT31;48512;48.552;9.380;2023-12-20T11:50:58;5.93;80.90
62464;SHT31;48512;48.552;9.380;2023-12-20T11:53:25;5.81;79.63
62464;SHT31;48512;48.552;9.380;2023-12-20T11:55:51;5.85;80.36
62464;SHT31;48512;48.552;9.380;2023-12-20T11:58:17;5.85;80.39
62464;SHT31;48512;48.552;9.380;2023-12-20T12:00:44;5.84;80.32
62464;SHT31;48512;48.552;9.380;2023-12-20T12:03:10;5.85;79.43
62464;SHT31;48512;48.552;9.380;2023-12-20T12:05:36;5.82;79.39
62464;SHT31;48512;48.552;9.380;2023-12-20T12:08:02;5.78;78.40
62464;SHT31;48512;48.552;9.380;2023-12-20T12:10:31;5.75;77.74
62464;SHT31;48512;48.552;9.380;2023-12-20T12:12:58;5.68;76.16
62464;SHT31;48512;48.552;9.380;2023-12-20T12:15:26;5.65;75.97
62464;SHT31;48512;48.552;9.380;2023-12-20T12:17:54;5.65;76.40
62464;SHT31;48512;48.552;9.380;2023-12-20T12:20:22;5.62;76.03
62464;SHT31;48512;48.552;9.380;2023-12-20T12:23:04;5.64;76.73
62464;SHT31;48512;48.552;9.380;2023-12-20T12:25:34;5.65;76.77
62464;SHT31;48512;48.552;9.380;2023-12-20T12:28:01;5.65;76.06
62464;SHT31;48512;48.552;9.380;2023-12-20T12:30:28;5.69;75.94
62464;SHT31;48512;48.552;9.380;2023-12-20T12:32:57;5.59;75.52
62464;SHT31;48512;48.552;9.380;2023-12-20T12:35:24;5.64;76.11
62464;SHT31;48512;48.552;9.380;2023-12-20T12:37:53;5.55;75.96
62464;SHT31;48512;48.552;9.380;2023-12-20T12:40:19;5.57;76.25
62464;SHT31;48512;48.552;9.380;2023-12-20T12:42:46;5.55;76.81
62464;SHT31;48512;48.552;9.380;2023-12-20T12:45:13;5.57;75.96
62464;SHT31;48512;48.552;9.380;2023-12-20T12:47:39;5.57;76.25
62464;SHT31;48512;48.552;9.380;2023-12-20T12:50:06;5.55;76.11
62464;SHT31;48512;48.552;9.380;2023-12-20T12:52:33;5.54;77.00
62464;SHT31;48512;48.552;9.380;2023-12-20T12:54:59;5.57;76.60
62464;SHT31;48512;48.552;9.380;2023-12-20T12:57:26;5.54;76.88
62464;SHT31;48512;48.552;9.380;2023-12-20T12:59:52;5.51;78.03
62464;SHT31;48512;48.552;9.380;2023-12-20T13:02:19;5.51;77.67
62464;SHT31;48512;48.552;9.380;2023-12-20T13:04:45;5.51;77.68
62464;SHT31;48512;48.552;9.380;2023-12-20T13:07:12;5.59;78.37
62464;SHT31;48512;48.552;9.380;2023-12-20T13:09:39;5.51;77.12
62464;SHT31;48512;48.552;9.380;2023-12-20T13:12:06;5.44;76.61
62464;SHT31;48512;48.552;9.380;2023-12-20T13:14:34;5.41;77.49
62464;SHT31;48512;48.552;9.380;2023-12-20T13:17:01;5.33;76.08
62464;SHT31;48512;48.552;9.380;2023-12-20T13:19:29;5.27;77.38
62464;SHT31;48512;48.552;9.380;2023-12-20T13:21:56;5.22;76.97
62464;SHT31;48512;48.552;9.380;2023-12-20T13:24:24;5.22;76.66
62464;SHT31;48512;48.552;9.380;2023-12-20T13:26:50;5.28;77.35
62464;SHT31;48512;48.552;9.380;2023-12-20T13:29:16;5.36;76.98
62464;SHT31;48512;48.552;9.380;2023-12-20T13:31:49;5.41;76.89
62464;SHT31;48512;48.552;9.380;2023-12-20T13:34:15;5.41;76.95
62464;SHT31;48512;48.552;9.380;2023-12-20T13:36:43;5.44;77.42
62464;SHT31;48512;48.552;9.380;2023-12-20T13:39:12;5.51;75.38
62464;SHT31;48512;48.552;9.380;2023-12-20T13:41:38;5.51;76.01
62464;SHT31;48512;48.552;9.380;2023-12-20T13:44:04;5.46;74.71
62464;SHT31;48512;48.552;9.380;2023-12-20T13:46:30;5.46;74.47
62464;SHT31;48512;48.552;9.380;2023-12-20T13:48:57;5.44;75.03
62464;SHT31;48512;48.552;9.380;2023-12-20T13:51:23;5.46;74.48
62464;SHT31;48512;48.552;9.380;2023-12-20T13:53:49;5.47;74.76
62464;SHT31;48512;48.552;9.380;2023-12-20T13:56:15;5.44;74.88
62464;SHT31;48512;48.552;9.380;2023-12-20T13:58:41;5.46;75.36
62464;SHT31;48512;48.552;9.380;2023-12-20T14:01:09;5.48;74.87
62464;SHT31;48512;48.552;9.380;2023-12-20T14:03:36;5.50;74.55
62464;SHT31;48512;48.552;9.380;2023-12-20T14:06:02;5.50;75.08
62464;SHT31;48512;48.552;9.380;2023-12-20T14:08:29;5.55;75.59
62464;SHT31;48512;48.552;9.380;2023-12-20T14:10:55;5.61;75.88
62464;SHT31;48512;48.552;9.380;2023-12-20T14:13:21;5.59;75.07
62464;SHT31;48512;48.552;9.380;2023-12-20T14:15:47;5.50;75.16
62464;SHT31;48512;48.552;9.380;2023-12-20T14:18:15;5.55;75.55
62464;SHT31;48512;48.552;9.380;2023-12-20T14:20:41;5.57;76.01
62464;SHT31;48512;48.552;9.380;2023-12-20T14:23:08;5.54;76.38
62464;SHT31;48512;48.552;9.380;2023-12-20T14:25:37;5.57;76.73
62464;SHT31;48512;48.552;9.380;2023-12-20T14:28:04;5.58;76.43
62464;SHT31;48512;48.552;9.380;2023-12-20T14:30:30;5.59;75.79
62464;SHT31;48512;48.552;9.380;2023-12-20T14:32:56;5.57;75.82
62464;SHT31;48512;48.552;9.380;2023-12-20T14:35:22;5.54;76.14
62464;SHT31;48512;48.552;9.380;2023-12-20T14:37:48;5.54;76.17
62464;SHT31;48512;48.552;9.380;2023-12-20T14:40:16;5.57;76.59
62464;SHT31;48512;48.552;9.380;2023-12-20T14:42:43;5.58;75.82
62464;SHT31;48512;48.552;9.380;2023-12-20T14:45:09;5.47;76.22
62464;SHT31;48512;48.552;9.380;2023-12-20T14:47:36;5.52;76.51
62464;SHT31;48512;48.552;9.380;2023-12-20T14:50:03;5.54;76.82
62464;SHT31;48512;48.552;9.380;2023-12-20T14:52:30;5.52;76.02
62464;SHT31;48512;48.552;9.380;2023-12-20T14:54:56;5.51;76.60
62464;SHT31;48512;48.552;9.380;2023-12-20T14:57:22;5.52;77.00
62464;SHT31;48512;48.552;9.380;2023-12-20T14:59:48;5.52;77.37
62464;SHT31;48512;48.552;9.380;2023-12-20T15:02:14;5.47;77.03
62464;SHT31;48512;48.552;9.380;2023-12-20T15:04:41;5.47;77.28
62464;SHT31;48512;48.552;9.380;2023-12-20T15:07:07;5.44;77.62
62464;SHT31;48512;48.552;9.380;2023-12-20T15:09:33;5.40;78.37
62464;SHT31;48512;48.552;9.380;2023-12-20T15:11:59;5.38;78.49
62464;SHT31;48512;48.552;9.380;2023-12-20T15:14:26;5.34;78.91
62464;SHT31;48512;48.552;9.380;2023-12-20T15:16:52;5.36;78.93
62464;SHT31;48512;48.552;9.380;2023-12-20T15:19:18;5.31;79.44
62464;SHT31;48512;48.552;9.380;2023-12-20T15:21:44;5.20;79.20
62464;SHT31;48512;48.552;9.380;2023-12-20T15:24:11;5.20;79.08
62464;SHT31;48512;48.552;9.380;2023-12-20T15:26:43;5.23;79.53
62464;SHT31;48512;48.552;9.380;2023-12-20T15:29:10;5.20;79.40
62464;SHT31;48512;48.552;9.380;2023-12-20T15:31:45;5.12;79.65
62464;SHT31;48512;48.552;9.380;2023-12-20T15:34:11;5.09;80.28
62464;SHT31;48512;48.552;9.380;2023-12-20T15:36:39;6.29;90.29
62464;SHT31;48512;48.552;9.380;2023-12-20T15:39:06;6.67;81.82
62464;SHT31;48512;48.552;9.380;2023-12-20T15:41:34;6.34;76.84
62464;SHT31;48512;48.552;9.380;2023-12-20T15:44:00;6.07;77.61
62464;SHT31;48512;48.552;9.380;2023-12-20T15:46:27;5.81;78.42
62464;SHT31;48512;48.552;9.380;2023-12-20T15:48:53;5.78;82.59
62464;SHT31;48512;48.552;9.380;2023-12-20T15:51:21;5.55;79.79
62464;SHT31;48512;48.552;9.380;2023-12-20T15:53:47;5.47;80.35